createdAt,value
2018-05-08T00:01:56.385Z,16.90
2018-05-08T00:04:22.586Z,16.80
2018-05-08T00:06:49.499Z,16.80
2018-05-08T00:09:15.714Z,16.80
2018-05-08T00:11:41.894Z,16.80
2018-05-08T00:14:08.767Z,16.80
2018-05-08T00:16:34.934Z,16.70
2018-05-08T00:19:01.108Z,16.80
2018-05-08T00:21:27.299Z,16.80
2018-05-08T00:23:53.426Z,16.70
2018-05-08T00:26:19.583Z,16.70
2018-05-08T00:28:45.737Z,16.70
2018-05-08T00:31:11.900Z,16.70
2018-05-08T00:33:38.011Z,16.60
2018-05-08T00:36:04.164Z,16.60
2018-05-08T00:38:31.068Z,16.50
2018-05-08T00:40:57.214Z,16.50
2018-05-08T00:43:23.376Z,16.60
2018-05-08T00:45:49.581Z,16.50
2018-05-08T00:48:16.466Z,16.50
2018-05-08T00:50:42.647Z,16.50
2018-05-08T00:53:08.845Z,16.50
2018-05-08T00:55:35.061Z,16.40
2018-05-08T00:58:01.298Z,16.40
2018-05-08T01:00:27.469Z,16.40
2018-05-08T01:02:54.399Z,16.40
2018-05-08T01:05:20.510Z,16.40
2018-05-08T01:07:46.798Z,16.30
2018-05-08T01:10:12.963Z,16.30
2018-05-08T01:12:39.134Z,16.30
2018-05-08T01:15:06.079Z,16.20
2018-05-08T01:17:33.001Z,16.30
2018-05-08T01:19:59.164Z,16.20
2018-05-08T01:22:25.329Z,16.30
2018-05-08T01:24:51.491Z,16.20
2018-05-08T01:27:17.673Z,16.20
2018-05-08T01:29:43.826Z,16.20
2018-05-08T01:32:10.004Z,16.10
2018-05-08T01:34:36.160Z,16.10
2018-05-08T01:37:02.359Z,16.20
2018-05-08T01:39:28.525Z,16.10
2018-05-08T01:41:54.757Z,16.10
2018-05-08T01:44:20.997Z,16.10
2018-05-08T01:46:47.175Z,16.10
2018-05-08T01:49:13.376Z,16.00
2018-05-08T01:51:40.303Z,16.00
2018-05-08T01:54:06.590Z,16.00
2018-05-08T01:56:32.797Z,15.90
2018-05-08T01:58:58.998Z,15.90
2018-05-08T02:01:25.967Z,15.80
2018-05-08T02:03:52.164Z,15.80
2018-05-08T02:06:18.339Z,15.80
2018-05-08T02:08:44.581Z,15.80
2018-05-08T02:11:10.833Z,15.80
2018-05-08T02:13:37.066Z,15.70
2018-05-08T02:16:03.234Z,15.80
2018-05-08T02:18:29.454Z,15.70
2018-05-08T02:20:56.398Z,15.70
2018-05-08T02:23:23.272Z,15.70
2018-05-08T02:25:49.537Z,15.60
2018-05-08T02:28:15.715Z,15.70
2018-05-08T02:30:48.988Z,15.70
2018-05-08T02:33:15.939Z,15.60
2018-05-08T02:35:42.097Z,15.60
2018-05-08T02:38:08.335Z,15.60
2018-05-08T02:40:34.484Z,15.60
2018-05-08T02:43:00.592Z,15.60
2018-05-08T02:45:26.993Z,15.50
2018-05-08T02:47:53.199Z,15.40
2018-05-08T02:50:20.178Z,15.30
2018-05-08T02:52:46.394Z,15.30
2018-05-08T02:55:12.663Z,15.30
2018-05-08T02:57:38.853Z,15.20
2018-05-08T03:00:05.134Z,15.30
2018-05-08T03:02:31.302Z,15.20
2018-05-08T03:04:57.458Z,15.20
2018-05-08T03:07:23.633Z,15.10
2018-05-08T03:09:50.570Z,15.00
2018-05-08T03:12:16.786Z,15.00
2018-05-08T03:14:42.961Z,15.10
2018-05-08T03:17:09.200Z,15.10
2018-05-08T03:19:35.433Z,15.10
2018-05-08T03:22:01.628Z,15.10
2018-05-08T03:24:28.509Z,15.00
2018-05-08T03:26:54.715Z,15.00
2018-05-08T03:29:20.948Z,14.90
2018-05-08T03:31:47.149Z,14.80
2018-05-08T03:34:14.048Z,14.70
2018-05-08T03:36:40.273Z,14.70
2018-05-08T03:39:06.488Z,14.70
2018-05-08T03:41:32.665Z,14.50
2018-05-08T03:44:00.430Z,14.60
2018-05-08T03:46:27.384Z,14.60
2018-05-08T03:48:54.349Z,14.60
2018-05-08T03:51:20.534Z,14.50
2018-05-08T03:53:46.753Z,14.60
2018-05-08T03:56:12.970Z,14.60
2018-05-08T03:58:39.241Z,14.60
2018-05-08T04:04:33.202Z,14.60
2018-05-08T04:07:11.678Z,14.70
2018-05-08T04:09:37.955Z,14.70
2018-05-08T04:12:04.107Z,14.70
2018-05-08T04:14:31.032Z,14.80
2018-05-08T04:17:19.138Z,14.80
2018-05-08T04:19:45.379Z,14.80
2018-05-08T04:22:11.601Z,14.80
2018-05-08T04:24:37.838Z,14.80
2018-05-08T04:27:04.329Z,14.80
2018-05-08T04:29:31.275Z,14.90
2018-05-08T04:31:59.662Z,14.90
2018-05-08T04:34:25.892Z,14.90
2018-05-08T04:36:52.130Z,14.90
2018-05-08T04:39:18.283Z,15.00
2018-05-08T04:41:44.553Z,14.90
2018-05-08T04:44:17.679Z,14.90
2018-05-08T04:46:43.848Z,14.90
2018-05-08T04:49:10.030Z,14.90
2018-05-08T04:51:36.288Z,14.90
2018-05-08T04:54:02.482Z,14.90
2018-05-08T04:56:28.663Z,15.10
2018-05-08T04:58:54.851Z,15.10
2018-05-08T05:01:21.035Z,15.00
2018-05-08T05:03:48.078Z,15.20
2018-05-08T05:06:15.059Z,15.20
2018-05-08T05:08:41.254Z,15.20
2018-05-08T05:11:08.207Z,15.30
2018-05-08T05:13:35.137Z,15.40
2018-05-08T05:16:01.277Z,15.40
2018-05-08T05:18:28.213Z,15.50
2018-05-08T05:20:54.379Z,15.50
2018-05-08T05:23:20.631Z,15.60
2018-05-08T05:25:46.866Z,15.70
2018-05-08T05:28:13.084Z,15.80
2018-05-08T05:30:39.240Z,15.90
2018-05-08T05:33:05.485Z,15.90
2018-05-08T05:35:32.518Z,16.10
2018-05-08T05:37:58.690Z,16.10
2018-05-08T05:40:24.953Z,16.20
2018-05-08T05:42:51.203Z,16.20
2018-05-08T05:45:17.391Z,16.30
2018-05-08T05:47:43.524Z,16.40
2018-05-08T05:50:09.708Z,16.40
2018-05-08T05:52:36.646Z,16.50
2018-05-08T05:55:03.592Z,16.60
2018-05-08T05:57:30.823Z,16.60
2018-05-08T05:59:57.076Z,16.70
2018-05-08T06:02:23.937Z,16.80
2018-05-08T06:04:50.191Z,16.80
2018-05-08T06:07:16.323Z,16.90
2018-05-08T06:09:42.553Z,17.00
2018-05-08T06:12:09.091Z,17.00
2018-05-08T06:14:36.112Z,17.30
2018-05-08T06:17:02.388Z,17.30
2018-05-08T06:19:28.573Z,17.40
2018-05-08T06:21:54.723Z,17.40
2018-05-08T06:24:20.888Z,17.60
2018-05-08T06:26:47.121Z,17.60
2018-05-08T06:29:14.019Z,17.70
2018-05-08T06:31:40.245Z,17.70
2018-05-08T06:34:06.538Z,17.90
2018-05-08T06:36:32.678Z,18.00
2018-05-08T06:38:58.925Z,18.10
2018-05-08T06:41:25.137Z,18.40
2018-05-08T06:43:51.373Z,18.30
2018-05-08T06:46:17.576Z,18.30
2018-05-08T06:48:44.465Z,18.40
2018-05-08T06:51:10.612Z,18.40
2018-05-08T06:53:36.850Z,18.60
2018-05-08T06:56:03.102Z,18.70
2018-05-08T06:58:30.574Z,18.80
2018-05-08T07:00:56.752Z,19.00
2018-05-08T07:03:22.956Z,18.90
2018-05-08T07:05:49.172Z,18.90
2018-05-08T07:08:15.310Z,19.10
2018-05-08T07:10:41.506Z,19.20
2018-05-08T07:13:07.761Z,19.20
2018-05-08T07:15:33.990Z,19.20
2018-05-08T07:18:00.204Z,19.20
2018-05-08T07:20:26.477Z,19.30
2018-05-08T07:22:52.665Z,19.20
2018-05-08T07:25:18.904Z,19.30
2018-05-08T07:27:45.077Z,19.30
2018-05-08T07:30:11.991Z,19.50
2018-05-08T07:32:38.285Z,19.50
2018-05-08T07:35:04.536Z,19.70
2018-05-08T07:37:30.765Z,19.70
2018-05-08T07:39:56.960Z,19.90
2018-05-08T07:42:23.154Z,20.10
2018-05-08T07:44:50.153Z,20.30
2018-05-08T07:47:16.328Z,20.30
2018-05-08T07:49:42.529Z,20.30
2018-05-08T07:52:08.750Z,20.60
2018-05-08T07:54:34.917Z,20.40
2018-05-08T07:57:01.083Z,20.50
2018-05-08T07:59:27.271Z,20.60
2018-05-08T08:01:53.459Z,20.70
2018-05-08T08:04:19.710Z,20.80
2018-05-08T08:06:45.859Z,20.70
2018-05-08T08:09:12.795Z,21.00
2018-05-08T08:11:38.977Z,21.00
2018-05-08T08:14:05.149Z,21.10
2018-05-08T08:16:31.385Z,21.00
2018-05-08T08:18:58.328Z,21.40
2018-05-08T08:21:25.326Z,21.60
2018-05-08T08:23:51.585Z,21.60
2018-05-08T08:26:18.469Z,21.80
2018-05-08T08:28:44.622Z,21.80
2018-05-08T08:31:10.886Z,21.90
2018-05-08T08:33:37.064Z,22.10
2018-05-08T08:36:03.252Z,22.10
2018-05-08T08:38:29.491Z,22.10
2018-05-08T08:40:56.529Z,21.80
2018-05-08T08:43:22.683Z,21.80
2018-05-08T08:45:49.623Z,22.10
2018-05-08T08:48:16.547Z,22.50
2018-05-08T08:50:42.728Z,22.40
2018-05-08T08:53:08.976Z,22.40
2018-05-08T08:55:35.139Z,22.40
2018-05-08T08:58:02.051Z,22.50
2018-05-08T09:00:28.209Z,22.40
2018-05-08T09:02:55.143Z,22.70
2018-05-08T09:05:21.386Z,22.70
2018-05-08T09:07:48.328Z,22.90
2018-05-08T09:10:15.268Z,22.70
2018-05-08T09:12:42.179Z,22.80
2018-05-08T09:15:08.332Z,22.80
2018-05-08T09:17:34.574Z,22.70
2018-05-08T09:20:01.539Z,22.80
2018-05-08T09:22:27.769Z,22.80
2018-05-08T09:24:53.934Z,22.90
2018-05-08T09:27:20.182Z,22.80
2018-05-08T09:29:46.302Z,22.60
2018-05-08T09:32:12.443Z,23.00
2018-05-08T09:34:38.608Z,23.30
2018-05-08T09:37:04.783Z,23.30
2018-05-08T09:39:30.987Z,23.30
2018-05-08T09:41:57.181Z,23.20
2018-05-08T09:44:23.321Z,23.30
2018-05-08T09:46:49.505Z,23.40
2018-05-08T09:49:15.684Z,23.20
2018-05-08T09:51:41.801Z,23.30
2018-05-08T09:54:08.048Z,23.30
2018-05-08T09:56:34.936Z,23.70
2018-05-08T09:59:01.914Z,23.70
2018-05-08T10:01:28.146Z,23.70
2018-05-08T10:03:54.383Z,24.00
2018-05-08T10:06:20.547Z,24.00
2018-05-08T10:08:46.710Z,24.20
2018-05-08T10:11:13.652Z,24.20
2018-05-08T10:13:40.556Z,24.10
2018-05-08T10:16:06.706Z,24.10
2018-05-08T10:18:32.894Z,24.00
2018-05-08T10:20:59.072Z,24.00
2018-05-08T10:23:26.022Z,24.50
2018-05-08T10:25:53.012Z,24.20
2018-05-08T10:28:19.183Z,24.10
2018-05-08T10:30:46.114Z,24.60
2018-05-08T10:33:12.244Z,24.50
2018-05-08T10:35:38.419Z,24.40
2018-05-08T10:38:04.659Z,24.30
2018-05-08T10:40:30.820Z,24.40
2018-05-08T10:42:56.987Z,24.40
2018-05-08T10:45:23.151Z,24.10
2018-05-08T10:47:49.413Z,24.30
2018-05-08T10:50:15.616Z,24.70
2018-05-08T10:52:41.817Z,25.00
2018-05-08T10:55:08.056Z,24.60
2018-05-08T10:57:34.279Z,24.70
2018-05-08T11:00:00.465Z,25.30
2018-05-08T11:02:27.445Z,24.70
2018-05-08T11:04:53.643Z,24.70
2018-05-08T11:07:20.583Z,24.70
2018-05-08T11:09:47.557Z,24.80
2018-05-08T11:12:13.856Z,24.80
2018-05-08T11:14:40.832Z,25.10
2018-05-08T11:17:07.067Z,25.10
2018-05-08T11:19:33.275Z,25.30
2018-05-08T11:21:59.501Z,25.40
2018-05-08T11:24:25.746Z,25.40
2018-05-08T11:26:52.067Z,25.50
2018-05-08T11:29:18.205Z,25.70
2018-05-08T11:31:44.467Z,25.50
2018-05-08T11:34:10.695Z,25.70
2018-05-08T11:36:36.938Z,25.50
2018-05-08T11:39:03.772Z,25.30
2018-05-08T11:41:29.918Z,25.70
2018-05-08T11:43:56.073Z,25.60
2018-05-08T11:46:23.033Z,26.10
2018-05-08T11:48:49.259Z,26.00
2018-05-08T11:51:15.469Z,25.80
2018-05-08T11:53:42.393Z,25.90
2018-05-08T11:56:09.413Z,25.90
2018-05-08T11:58:35.597Z,25.80
2018-05-08T12:01:01.911Z,26.00
2018-05-08T12:03:28.019Z,25.60
2018-05-08T12:05:54.250Z,25.80
2018-05-08T12:08:21.217Z,25.70
2018-05-08T12:10:48.149Z,26.10
2018-05-08T12:13:15.052Z,25.90
2018-05-08T12:15:41.242Z,25.90
2018-05-08T12:18:07.417Z,25.60
2018-05-08T12:20:33.654Z,25.60
2018-05-08T12:22:59.817Z,25.70
2018-05-08T12:25:26.065Z,26.00
2018-05-08T12:27:52.308Z,26.20
2018-05-08T12:30:18.487Z,26.20
2018-05-08T12:32:45.410Z,26.20
2018-05-08T12:35:11.585Z,26.20
2018-05-08T12:37:37.746Z,26.30
2018-05-08T12:40:04.015Z,26.80
2018-05-08T12:42:30.991Z,26.90
2018-05-08T12:44:57.185Z,26.90
2018-05-08T12:47:24.181Z,26.50
2018-05-08T12:49:50.383Z,26.40
2018-05-08T12:52:17.304Z,26.70
2018-05-08T12:54:44.242Z,27.10
2018-05-08T12:57:10.434Z,27.10
2018-05-08T12:59:36.699Z,26.90
2018-05-08T13:02:03.617Z,26.90
2018-05-08T13:04:29.812Z,26.80
2018-05-08T13:06:55.987Z,26.90
2018-05-08T13:09:22.214Z,27.30
2018-05-08T13:11:48.473Z,27.30
2018-05-08T13:14:15.454Z,26.70
2018-05-08T13:16:41.677Z,26.70
2018-05-08T13:19:07.871Z,26.90
2018-05-08T13:21:34.813Z,27.40
2018-05-08T13:24:01.728Z,27.30
2018-05-08T13:26:27.901Z,27.20
2018-05-08T13:28:54.802Z,27.00
2018-05-08T13:31:21.018Z,27.00
2018-05-08T13:33:47.289Z,26.70
2018-05-08T13:36:14.306Z,27.10
2018-05-08T13:38:40.478Z,27.10
2018-05-08T13:41:07.441Z,26.90
2018-05-08T13:43:33.640Z,26.90
2018-05-08T13:46:00.604Z,27.00
2018-05-08T13:48:26.827Z,27.00
2018-05-08T13:50:52.997Z,27.00
2018-05-08T13:53:19.199Z,27.10
2018-05-08T13:55:45.334Z,27.50
2018-05-08T13:58:11.551Z,27.50
2018-05-08T14:00:37.806Z,27.40
2018-05-08T14:03:04.038Z,27.00
2018-05-08T14:05:30.243Z,26.90
2018-05-08T14:07:56.417Z,27.20
2018-05-08T14:10:23.350Z,27.60
2018-05-08T14:12:49.589Z,27.50
2018-05-08T14:15:16.468Z,26.80
2018-05-08T14:17:42.644Z,26.80
2018-05-08T14:20:08.853Z,26.40
2018-05-08T14:22:35.124Z,26.80
2018-05-08T14:25:02.117Z,26.90
2018-05-08T14:27:28.684Z,26.90
2018-05-08T14:29:54.841Z,26.90
2018-05-08T14:32:21.790Z,27.10
2018-05-08T14:34:48.810Z,26.60
2018-05-08T14:37:15.023Z,26.60
2018-05-08T14:39:43.361Z,26.60
2018-05-08T14:42:09.634Z,26.70
2018-05-08T14:44:35.849Z,26.70
2018-05-08T14:47:02.039Z,26.90
2018-05-08T14:49:29.095Z,27.30
2018-05-08T14:51:55.295Z,27.30
2018-05-08T14:54:22.207Z,27.10
2018-05-08T14:56:48.497Z,27.10
2018-05-08T14:59:14.752Z,27.00
2018-05-08T15:01:40.966Z,26.20
2018-05-08T15:04:07.217Z,26.10
2018-05-08T15:06:33.462Z,26.20
2018-05-08T15:08:59.714Z,26.10
2018-05-08T15:11:26.617Z,25.80
2018-05-08T15:13:52.905Z,25.80
2018-05-08T15:16:19.097Z,25.70
2018-05-08T15:18:45.345Z,25.60
2018-05-08T15:21:12.330Z,25.60
2018-05-08T15:23:38.575Z,25.60
2018-05-08T15:26:04.849Z,25.80
2018-05-08T15:28:31.821Z,25.90
2018-05-08T15:30:58.022Z,25.90
2018-05-08T15:33:24.961Z,25.50
2018-05-08T15:35:51.908Z,25.70
2018-05-08T15:38:18.886Z,25.60
2018-05-08T15:40:45.054Z,25.50
2018-05-08T15:43:11.227Z,25.50
2018-05-08T15:45:38.192Z,25.30
2018-05-08T15:48:04.415Z,25.30
2018-05-08T15:50:30.602Z,25.40
2018-05-08T15:52:57.024Z,25.40
2018-05-08T15:55:23.237Z,25.50
2018-05-08T15:57:49.437Z,25.40
2018-05-08T16:00:15.603Z,25.50
2018-05-08T16:02:41.788Z,25.60
2018-05-08T16:05:07.992Z,25.60
2018-05-08T16:07:34.861Z,25.60
2018-05-08T16:10:01.155Z,25.60
2018-05-08T16:12:28.136Z,25.60
2018-05-08T16:14:54.304Z,25.60
2018-05-08T16:17:20.480Z,25.60
2018-05-08T16:19:46.686Z,25.50
2018-05-08T16:22:13.569Z,25.30
2018-05-08T16:24:39.804Z,25.30
2018-05-08T16:27:06.008Z,25.30
2018-05-08T16:29:32.981Z,24.90
2018-05-08T16:31:59.143Z,25.00
2018-05-08T16:34:25.317Z,24.70
2018-05-08T16:36:51.528Z,24.70
2018-05-08T16:39:18.842Z,24.90
2018-05-08T16:41:45.059Z,24.90
2018-05-08T16:44:11.406Z,25.10
2018-05-08T16:46:37.594Z,25.10
2018-05-08T16:49:03.837Z,25.00
2018-05-08T16:51:30.085Z,24.80
2018-05-08T16:53:56.336Z,24.70
2018-05-08T16:56:22.506Z,24.60
2018-05-08T16:58:48.677Z,24.50
2018-05-08T17:01:14.840Z,24.50
2018-05-08T17:03:42.017Z,24.50
2018-05-08T17:06:08.240Z,24.40
2018-05-08T17:08:35.217Z,24.40
2018-05-08T17:11:01.476Z,24.40
2018-05-08T17:13:28.451Z,24.30
2018-05-08T17:15:54.671Z,24.20
2018-05-08T17:18:20.837Z,24.20
2018-05-08T17:20:46.954Z,24.20
2018-05-08T17:23:13.814Z,24.20
2018-05-08T17:25:40.089Z,24.10
2018-05-08T17:28:06.254Z,24.10
2018-05-08T17:30:32.456Z,23.90
2018-05-08T17:32:58.683Z,23.90
2018-05-08T17:35:24.856Z,23.90
2018-05-08T17:37:51.022Z,23.90
2018-05-08T17:40:18.028Z,23.80
2018-05-08T17:42:44.257Z,23.80
2018-05-08T17:45:10.423Z,23.80
2018-05-08T17:47:36.722Z,23.70
2018-05-08T17:50:02.994Z,23.60
2018-05-08T17:52:29.212Z,23.50
2018-05-08T17:54:56.146Z,23.40
2018-05-08T17:57:23.183Z,23.40
2018-05-08T17:59:49.310Z,23.30
2018-05-08T18:02:15.485Z,23.30
2018-05-08T18:04:41.608Z,23.20
2018-05-08T18:07:07.837Z,23.10
2018-05-08T18:09:33.997Z,23.10
2018-05-08T18:12:00.235Z,23.00
2018-05-08T18:14:26.456Z,23.00
2018-05-08T18:16:52.680Z,23.00
2018-05-08T18:19:18.892Z,22.90
2018-05-08T18:21:45.106Z,22.80
2018-05-08T18:24:11.325Z,22.70
2018-05-08T18:26:37.622Z,22.70
2018-05-08T18:29:03.727Z,22.60
2018-05-08T18:31:29.868Z,22.60
2018-05-08T18:33:56.090Z,22.50
2018-05-08T18:36:22.287Z,22.50
2018-05-08T18:38:48.484Z,22.40
2018-05-08T18:41:14.672Z,22.40
2018-05-08T18:43:40.965Z,22.30
2018-05-08T18:46:07.178Z,22.20
2018-05-08T18:48:33.386Z,22.10
2018-05-08T18:51:00.326Z,22.10
2018-05-08T18:53:27.243Z,22.00
2018-05-08T18:55:53.392Z,21.90
2018-05-08T18:58:20.261Z,21.90
2018-05-08T19:00:52.590Z,21.90
2018-05-08T19:03:18.730Z,21.90
2018-05-08T19:05:45.702Z,21.90
2018-05-08T19:08:11.854Z,21.80
2018-05-08T19:10:38.078Z,21.70
2018-05-08T19:13:04.328Z,21.80
2018-05-08T19:15:36.559Z,21.80
2018-05-08T19:18:02.821Z,21.70
2018-05-08T19:20:29.072Z,21.70
2018-05-08T19:22:55.321Z,21.60
2018-05-08T19:25:22.206Z,21.30
2018-05-08T19:27:48.411Z,21.30
2018-05-08T19:30:20.834Z,21.20
2018-05-08T19:32:47.026Z,21.10
2018-05-08T19:35:19.323Z,20.90
2018-05-08T19:37:51.711Z,20.90
2018-05-08T19:40:17.926Z,20.80
2018-05-08T19:42:44.110Z,20.80
2018-05-08T19:45:10.279Z,20.70
2018-05-08T19:47:36.538Z,20.70
2018-05-08T19:50:02.883Z,20.60
2018-05-08T19:52:29.184Z,20.60
2018-05-08T19:54:55.356Z,20.60
2018-05-08T19:57:21.585Z,20.60
2018-05-08T19:59:47.756Z,20.60
2018-05-08T20:02:13.997Z,20.50
2018-05-08T20:04:40.212Z,20.50
2018-05-08T20:07:06.468Z,20.50
2018-05-08T20:09:34.241Z,20.40
2018-05-08T20:12:01.182Z,20.40
2018-05-08T20:14:28.084Z,20.40
2018-05-08T20:16:54.304Z,20.30
2018-05-08T20:19:20.530Z,20.30
2018-05-08T20:21:46.766Z,20.30
2018-05-08T20:24:12.964Z,20.30
2018-05-08T20:26:39.187Z,20.30
2018-05-08T20:29:05.467Z,20.20
2018-05-08T20:31:31.643Z,20.10
2018-05-08T20:33:58.638Z,20.10
2018-05-08T20:36:24.880Z,20.10
2018-05-08T20:38:51.118Z,20.10
2018-05-08T20:41:18.052Z,20.10
2018-05-08T20:43:44.263Z,20.10
2018-05-08T20:46:10.415Z,20.10
2018-05-08T20:48:37.354Z,20.10
2018-05-08T20:51:03.593Z,20.10
2018-05-08T20:53:30.572Z,20.00
2018-05-08T20:55:57.066Z,20.00
2018-05-08T20:58:24.277Z,19.90
2018-05-08T21:00:50.733Z,19.90
2018-05-08T21:03:17.016Z,19.80
2018-05-08T21:05:43.498Z,19.70
2018-05-08T21:08:09.999Z,19.60
2018-05-08T21:10:36.580Z,19.50
2018-05-08T21:13:03.023Z,19.30
2018-05-08T21:15:29.495Z,19.30
2018-05-08T21:17:55.955Z,19.20
2018-05-08T21:20:22.360Z,19.00
2018-05-08T21:22:48.803Z,18.90
2018-05-08T21:25:15.247Z,18.80
2018-05-08T21:27:47.469Z,18.80
2018-05-08T21:30:20.678Z,18.60
2018-05-08T21:32:46.941Z,18.60
2018-05-08T21:35:13.102Z,18.50
2018-05-08T21:37:39.281Z,18.40
2018-05-08T21:40:05.507Z,18.40
2018-05-08T21:42:31.714Z,18.20
2018-05-08T21:44:58.650Z,18.10
2018-05-08T21:47:25.603Z,18.00
2018-05-08T21:49:52.533Z,18.00
2018-05-08T21:52:19.546Z,17.90
2018-05-08T21:54:45.779Z,17.90
2018-05-08T21:57:11.979Z,17.90
2018-05-08T21:59:38.209Z,17.80
2018-05-08T22:02:04.438Z,17.70
2018-05-08T22:04:30.604Z,17.70
2018-05-08T22:06:56.797Z,17.60
2018-05-08T22:09:23.008Z,17.50
2018-05-08T22:11:49.980Z,17.40
2018-05-08T22:14:16.244Z,17.30
2018-05-08T22:16:42.457Z,17.10
2018-05-08T22:19:08.680Z,17.00
2018-05-08T22:21:34.845Z,16.80
2018-05-08T22:24:01.767Z,16.70
2018-05-08T22:26:27.951Z,16.70
2018-05-08T22:28:54.154Z,16.70
2018-05-08T22:31:21.075Z,16.80
2018-05-08T22:33:47.250Z,16.70
2018-05-08T22:36:13.486Z,16.70
2018-05-08T22:38:39.623Z,16.70
2018-05-08T22:41:05.833Z,16.80
2018-05-08T22:43:32.034Z,16.90
2018-05-08T22:45:58.289Z,17.10
2018-05-08T22:48:24.471Z,17.20
2018-05-08T22:50:51.422Z,17.40
2018-05-08T22:53:18.368Z,17.50
2018-05-08T22:55:45.319Z,17.50
2018-05-08T22:58:12.297Z,17.60
2018-05-08T23:00:38.456Z,17.60
2018-05-08T23:03:04.673Z,17.70
2018-05-08T23:05:30.867Z,17.70
2018-05-08T23:07:57.096Z,17.60
2018-05-08T23:10:23.289Z,17.60
2018-05-08T23:12:50.252Z,17.60
2018-05-08T23:15:16.434Z,17.60
2018-05-08T23:17:42.612Z,17.60
2018-05-08T23:20:09.495Z,17.50
2018-05-08T23:22:35.673Z,17.50
2018-05-08T23:25:02.574Z,17.50
2018-05-08T23:27:28.756Z,17.50
2018-05-08T23:29:54.997Z,17.50
2018-05-08T23:32:21.141Z,17.50
2018-05-08T23:34:47.334Z,17.50
2018-05-08T23:37:14.266Z,17.50
2018-05-08T23:39:41.234Z,17.50
2018-05-08T23:42:07.437Z,17.50
2018-05-08T23:44:34.374Z,17.40
2018-05-08T23:47:00.578Z,17.30
2018-05-08T23:49:26.788Z,17.30
2018-05-08T23:51:53.015Z,17.30
2018-05-08T23:54:19.202Z,17.20
2018-05-08T23:56:46.145Z,17.10
2018-05-08T23:59:13.120Z,17.10
